createdAt,value
2019-02-20T00:02:10.936Z,3.80
2019-02-20T00:04:39.677Z,3.80
2019-02-20T00:07:08.414Z,3.80
2019-02-20T00:09:37.146Z,3.80
2019-02-20T00:12:05.889Z,3.80
2019-02-20T00:14:34.707Z,3.80
2019-02-20T00:17:03.464Z,3.80
2019-02-20T00:19:32.194Z,3.80
2019-02-20T00:22:00.957Z,3.80
2019-02-20T00:24:29.709Z,3.80
2019-02-20T00:26:58.573Z,3.70
2019-02-20T00:29:27.286Z,3.70
2019-02-20T00:31:56.036Z,3.70
2019-02-20T00:34:24.797Z,3.70
2019-02-20T00:36:53.538Z,3.60
2019-02-20T00:39:22.284Z,3.50
2019-02-20T00:41:51.041Z,3.50
2019-02-20T00:44:48.144Z,3.40
2019-02-20T00:47:27.940Z,3.20
2019-02-20T00:49:56.692Z,3.20
2019-02-20T00:52:49.580Z,3.10
2019-02-20T00:55:14.032Z,3.10
2019-02-20T00:57:42.780Z,2.90
2019-02-20T01:00:12.573Z,2.80
2019-02-20T01:02:41.417Z,2.60
2019-02-20T01:05:10.355Z,2.50
2019-02-20T01:07:39.116Z,2.60
2019-02-20T01:10:08.588Z,2.60
2019-02-20T01:12:37.337Z,2.60
2019-02-20T01:15:06.825Z,2.70
2019-02-20T01:17:35.584Z,2.70
2019-02-20T01:20:05.022Z,2.70
2019-02-20T01:22:33.760Z,2.80
2019-02-20T01:25:02.568Z,2.80
2019-02-20T01:27:31.309Z,2.70
2019-02-20T01:30:00.298Z,2.70
2019-02-20T01:32:29.847Z,2.80
2019-02-20T01:34:58.629Z,2.70
2019-02-20T01:37:27.373Z,2.70
2019-02-20T01:39:56.121Z,2.60
2019-02-20T01:42:24.838Z,2.50
2019-02-20T01:44:53.575Z,2.50
2019-02-20T01:47:22.388Z,2.50
2019-02-20T01:49:51.122Z,2.40
2019-02-20T01:52:19.849Z,2.30
2019-02-20T01:54:48.611Z,2.30
2019-02-20T01:57:17.346Z,2.30
2019-02-20T01:59:46.074Z,2.30
2019-02-20T02:02:14.822Z,2.30
2019-02-20T02:04:43.571Z,2.30
2019-02-20T02:07:12.317Z,2.30
2019-02-20T02:09:41.136Z,2.30
2019-02-20T02:12:09.979Z,2.30
2019-02-20T02:14:38.717Z,2.30
2019-02-20T02:17:07.451Z,2.30
2019-02-20T02:19:37.338Z,2.20
2019-02-20T02:22:06.146Z,2.30
2019-02-20T02:24:34.879Z,2.20
2019-02-20T02:27:03.788Z,2.20
2019-02-20T02:29:32.630Z,2.10
2019-02-20T02:32:01.529Z,2.00
2019-02-20T02:34:30.406Z,2.00
2019-02-20T02:36:59.131Z,2.00
2019-02-20T02:39:27.894Z,2.00
2019-02-20T02:41:58.396Z,1.90
2019-02-20T02:44:27.134Z,1.90
2019-02-20T02:46:55.881Z,1.90
2019-02-20T02:49:24.639Z,2.10
2019-02-20T02:51:53.363Z,2.00
2019-02-20T02:54:22.117Z,2.10
2019-02-20T02:56:50.931Z,2.00
2019-02-20T02:59:19.669Z,2.00
2019-02-20T03:01:48.503Z,2.00
2019-02-20T03:04:17.249Z,2.00
2019-02-20T03:06:45.996Z,2.00
2019-02-20T03:09:14.721Z,2.00
2019-02-20T03:11:43.484Z,2.00
2019-02-20T03:14:12.206Z,2.00
2019-02-20T03:16:40.976Z,1.90
2019-02-20T03:19:09.780Z,1.90
2019-02-20T03:21:38.524Z,1.80
2019-02-20T03:24:07.280Z,1.80
2019-02-20T03:26:36.055Z,1.80
2019-02-20T03:29:04.956Z,1.70
2019-02-20T03:31:33.722Z,1.60
2019-02-20T03:34:02.930Z,1.60
2019-02-20T03:36:31.948Z,1.60
2019-02-20T03:39:00.733Z,1.60
2019-02-20T03:41:29.516Z,1.50
2019-02-20T03:43:58.260Z,1.50
2019-02-20T03:46:27.007Z,1.50
2019-02-20T03:48:55.735Z,1.50
2019-02-20T03:51:24.487Z,1.50
2019-02-20T03:53:54.459Z,1.50
2019-02-20T03:56:23.357Z,1.50
2019-02-20T03:58:52.153Z,1.60
2019-02-20T04:01:20.987Z,1.60
2019-02-20T04:03:49.724Z,1.70
2019-02-20T04:06:18.469Z,1.70
2019-02-20T04:08:47.217Z,1.70
2019-02-20T04:11:15.957Z,1.70
2019-02-20T04:13:44.723Z,1.70
2019-02-20T04:16:14.384Z,1.70
2019-02-20T04:18:43.163Z,1.70
2019-02-20T04:21:11.911Z,1.70
2019-02-20T04:23:40.662Z,1.60
2019-02-20T04:26:09.998Z,1.60
2019-02-20T04:28:39.020Z,1.60
2019-02-20T04:31:07.762Z,1.60
2019-02-20T04:33:36.494Z,1.40
2019-02-20T04:36:05.338Z,1.40
2019-02-20T04:38:34.248Z,1.30
2019-02-20T04:41:02.982Z,1.40
2019-02-20T04:43:33.313Z,1.40
2019-02-20T04:46:02.057Z,1.40
2019-02-20T04:48:30.802Z,1.50
2019-02-20T04:50:59.607Z,1.50
2019-02-20T04:53:28.341Z,1.40
2019-02-20T04:55:57.202Z,1.50
2019-02-20T04:58:26.014Z,1.50
2019-02-20T05:00:54.824Z,1.60
2019-02-20T05:03:23.580Z,1.60
2019-02-20T05:05:53.135Z,1.60
2019-02-20T05:08:21.885Z,1.60
2019-02-20T05:10:50.693Z,1.70
2019-02-20T05:13:19.426Z,1.70
2019-02-20T05:15:48.150Z,1.80
2019-02-20T05:18:16.903Z,1.80
2019-02-20T05:20:45.626Z,1.80
2019-02-20T05:23:14.445Z,1.80
2019-02-20T05:25:43.226Z,1.80
2019-02-20T05:28:11.957Z,1.80
2019-02-20T05:30:41.097Z,1.80
2019-02-20T05:33:10.419Z,1.80
2019-02-20T05:35:39.170Z,1.70
2019-02-20T05:38:07.898Z,1.70
2019-02-20T05:40:36.661Z,1.70
2019-02-20T05:43:05.408Z,1.70
2019-02-20T05:45:34.158Z,1.60
2019-02-20T05:48:02.995Z,1.60
2019-02-20T05:50:31.738Z,1.60
2019-02-20T05:53:00.474Z,1.50
2019-02-20T05:55:29.350Z,1.50
2019-02-20T05:57:58.088Z,1.50
2019-02-20T06:00:26.875Z,1.50
2019-02-20T06:02:55.670Z,1.40
2019-02-20T06:05:24.432Z,1.40
2019-02-20T06:07:53.177Z,1.40
2019-02-20T06:10:21.976Z,1.30
2019-02-20T06:12:50.993Z,1.30
2019-02-20T06:15:19.748Z,1.20
2019-02-20T06:17:48.486Z,1.20
2019-02-20T06:20:17.238Z,1.30
2019-02-20T06:22:45.980Z,1.30
2019-02-20T06:25:14.762Z,1.30
2019-02-20T06:27:43.523Z,1.40
2019-02-20T06:30:12.529Z,1.40
2019-02-20T06:32:41.277Z,1.40
2019-02-20T06:35:10.115Z,1.50
2019-02-20T06:37:38.897Z,1.50
2019-02-20T06:40:08.561Z,1.60
2019-02-20T06:42:37.404Z,1.60
2019-02-20T06:45:06.612Z,1.60
2019-02-20T06:47:35.352Z,1.70
2019-02-20T06:50:04.592Z,1.70
2019-02-20T06:52:33.349Z,1.80
2019-02-20T06:55:02.173Z,1.80
2019-02-20T06:57:30.902Z,1.80
2019-02-20T06:59:59.656Z,1.80
2019-02-20T07:02:28.408Z,1.90
2019-02-20T07:05:35.298Z,2.00
2019-02-20T07:08:44.440Z,2.10
2019-02-20T07:11:25.141Z,2.20
2019-02-20T07:14:01.300Z,2.30
2019-02-20T07:17:12.576Z,2.30
2019-02-20T07:19:59.696Z,2.50
2019-02-20T07:23:03.915Z,2.50
2019-02-20T07:25:46.844Z,2.40
2019-02-20T07:28:32.521Z,2.60
2019-02-20T07:31:01.313Z,2.70
2019-02-20T07:33:30.146Z,2.80
2019-02-20T07:35:58.905Z,2.90
2019-02-20T07:38:27.640Z,3.00
2019-02-20T07:40:56.392Z,3.20
2019-02-20T07:43:25.137Z,3.40
2019-02-20T07:45:53.879Z,3.40
2019-02-20T07:48:22.618Z,3.60
2019-02-20T07:50:51.373Z,3.80
2019-02-20T07:53:20.141Z,3.90
2019-02-20T07:55:48.888Z,4.10
2019-02-20T07:58:17.641Z,3.80
2019-02-20T08:00:46.389Z,3.60
2019-02-20T08:03:15.150Z,4.00
2019-02-20T08:05:43.884Z,4.00
2019-02-20T08:08:14.306Z,4.10
2019-02-20T08:10:43.499Z,4.20
2019-02-20T08:13:12.250Z,4.40
2019-02-20T08:15:40.984Z,4.90
2019-02-20T08:18:09.789Z,4.90
2019-02-20T08:20:38.543Z,5.10
2019-02-20T08:23:07.290Z,5.30
2019-02-20T08:25:36.021Z,5.50
2019-02-20T08:28:04.847Z,6.10
2019-02-20T08:30:33.691Z,6.40
2019-02-20T08:33:02.446Z,6.50
2019-02-20T08:35:31.193Z,6.60
2019-02-20T08:37:59.939Z,6.90
2019-02-20T08:40:28.705Z,7.50
2019-02-20T08:42:57.449Z,7.60
2019-02-20T08:45:26.277Z,7.90
2019-02-20T08:47:55.028Z,8.00
2019-02-20T08:50:23.770Z,8.60
2019-02-20T08:52:52.535Z,8.90
2019-02-20T08:55:21.321Z,9.10
2019-02-20T08:57:50.086Z,9.90
2019-02-20T09:00:20.968Z,10.60
2019-02-20T09:02:49.478Z,10.50
2019-02-20T09:05:18.230Z,10.20
2019-02-20T09:07:47.007Z,10.50
2019-02-20T09:10:17.372Z,11.10
2019-02-20T09:12:46.450Z,11.10
2019-02-20T09:15:15.360Z,10.90
2019-02-20T09:17:44.118Z,10.50
2019-02-20T09:20:12.974Z,10.70
2019-02-20T09:22:41.733Z,10.70
2019-02-20T09:25:19.170Z,11.00
2019-02-20T09:27:41.251Z,10.60
2019-02-20T09:30:12.319Z,11.30
2019-02-20T09:32:41.156Z,11.90
2019-02-20T09:35:10.278Z,11.40
2019-02-20T09:37:39.022Z,11.30
2019-02-20T09:40:10.319Z,12.00
2019-02-20T09:42:40.596Z,12.10
2019-02-20T09:45:10.778Z,12.60
2019-02-20T09:47:39.506Z,12.70
2019-02-20T09:50:08.687Z,12.60
2019-02-20T09:52:37.442Z,12.80
2019-02-20T09:55:06.853Z,13.00
2019-02-20T09:57:35.609Z,12.90
2019-02-20T10:00:05.824Z,12.50
2019-02-20T10:02:34.600Z,12.50
2019-02-20T10:05:03.353Z,12.90
2019-02-20T10:07:32.092Z,13.50
2019-02-20T10:10:00.852Z,13.50
2019-02-20T10:12:29.600Z,13.50
2019-02-20T10:14:58.364Z,13.10
2019-02-20T10:17:27.115Z,13.20
2019-02-20T10:19:55.846Z,13.70
2019-02-20T10:22:24.596Z,13.50
2019-02-20T10:24:53.353Z,14.50
2019-02-20T10:27:22.193Z,15.20
2019-02-20T10:29:51.000Z,12.80
2019-02-20T10:32:19.747Z,13.80
2019-02-20T10:34:48.512Z,14.20
2019-02-20T10:37:17.253Z,14.70
2019-02-20T10:39:46.022Z,14.10
2019-02-20T10:42:14.773Z,14.60
2019-02-20T10:44:43.512Z,13.70
2019-02-20T10:47:12.265Z,14.00
2019-02-20T10:49:41.004Z,14.40
2019-02-20T10:52:09.767Z,15.10
2019-02-20T10:54:38.546Z,13.90
2019-02-20T10:57:07.357Z,14.20
2019-02-20T10:59:36.126Z,14.30
2019-02-20T11:02:05.329Z,14.20
2019-02-20T11:04:34.234Z,13.60
2019-02-20T11:07:03.142Z,14.20
2019-02-20T11:09:31.982Z,14.30
2019-02-20T11:12:00.906Z,14.20
2019-02-20T11:14:29.660Z,13.40
2019-02-20T11:16:58.418Z,14.80
2019-02-20T11:19:27.161Z,15.00
2019-02-20T11:21:56.000Z,15.60
2019-02-20T11:24:24.747Z,15.50
2019-02-20T11:26:55.255Z,15.50
2019-02-20T11:29:23.978Z,15.40
2019-02-20T11:31:54.249Z,15.10
2019-02-20T11:34:22.988Z,14.60
2019-02-20T11:36:51.754Z,15.20
2019-02-20T11:39:20.529Z,15.90
2019-02-20T11:41:49.272Z,15.70
2019-02-20T11:44:20.997Z,15.80
2019-02-20T11:46:48.561Z,14.60
2019-02-20T11:49:17.324Z,13.80
2019-02-20T11:51:46.073Z,14.20
2019-02-20T11:54:15.015Z,14.10
2019-02-20T11:56:43.762Z,14.70
2019-02-20T11:59:12.520Z,13.90
2019-02-20T12:01:41.322Z,14.30
2019-02-20T12:04:10.096Z,14.90
2019-02-20T12:06:38.857Z,16.40
2019-02-20T12:09:07.873Z,16.00
2019-02-20T12:11:36.772Z,15.70
2019-02-20T12:14:05.524Z,14.60
2019-02-20T12:16:34.277Z,14.70
2019-02-20T12:19:03.120Z,15.60
2019-02-20T12:21:31.866Z,16.70
2019-02-20T12:24:00.626Z,16.10
2019-02-20T12:26:34.837Z,15.90
2019-02-20T12:28:59.891Z,15.90
2019-02-20T12:31:28.707Z,16.10
2019-02-20T12:33:57.494Z,16.20
2019-02-20T12:36:26.245Z,16.50
2019-02-20T12:38:55.041Z,16.50
2019-02-20T12:41:23.830Z,16.40
2019-02-20T12:43:52.645Z,17.60
2019-02-20T12:46:21.490Z,18.10
2019-02-20T12:48:50.343Z,18.30
2019-02-20T12:51:19.088Z,18.30
2019-02-20T12:53:47.845Z,17.60
2019-02-20T12:56:16.669Z,17.80
2019-02-20T12:58:45.416Z,17.80
2019-02-20T13:01:14.246Z,18.20
2019-02-20T13:03:43.002Z,17.60
2019-02-20T13:06:11.741Z,16.80
2019-02-20T13:08:40.582Z,15.80
2019-02-20T13:11:09.534Z,15.70
2019-02-20T13:13:43.440Z,15.70
2019-02-20T13:16:12.011Z,15.50
2019-02-20T13:18:40.751Z,15.90
2019-02-20T13:21:11.001Z,15.00
2019-02-20T13:23:40.022Z,15.50
2019-02-20T13:26:08.941Z,15.90
2019-02-20T13:28:37.701Z,16.40
2019-02-20T13:31:06.473Z,15.90
2019-02-20T13:33:35.701Z,15.30
2019-02-20T13:36:05.512Z,15.20
2019-02-20T13:38:35.366Z,15.40
2019-02-20T13:41:04.292Z,15.50
2019-02-20T13:43:33.041Z,14.90
2019-02-20T13:46:01.900Z,15.40
2019-02-20T13:48:30.674Z,14.90
2019-02-20T13:50:59.551Z,14.00
2019-02-20T13:53:28.365Z,14.00
2019-02-20T13:55:57.204Z,13.70
2019-02-20T13:58:26.472Z,13.90
2019-02-20T14:00:55.293Z,13.90
2019-02-20T14:03:24.126Z,13.90
2019-02-20T14:05:52.883Z,14.00
2019-02-20T14:08:21.788Z,14.40
2019-02-20T14:10:50.615Z,14.50
2019-02-20T14:13:26.641Z,14.20
2019-02-20T14:15:55.398Z,14.50
2019-02-20T14:18:24.133Z,14.70
2019-02-20T14:20:52.951Z,14.20
2019-02-20T14:23:21.693Z,14.20
2019-02-20T14:25:50.509Z,14.20
2019-02-20T14:28:19.252Z,14.30
2019-02-20T14:30:48.174Z,14.20
2019-02-20T14:33:16.937Z,14.30
2019-02-20T14:35:46.838Z,14.30
2019-02-20T14:38:15.605Z,14.20
2019-02-20T14:40:44.352Z,14.00
2019-02-20T14:43:13.103Z,14.10
2019-02-20T14:45:42.415Z,14.00
2019-02-20T14:48:11.164Z,13.90
2019-02-20T14:50:40.491Z,13.80
2019-02-20T14:53:09.254Z,13.90
2019-02-20T14:55:38.025Z,14.10
2019-02-20T14:58:06.844Z,14.20
2019-02-20T15:00:35.958Z,14.30
2019-02-20T15:03:05.020Z,14.10
2019-02-20T15:05:33.785Z,13.90
2019-02-20T15:08:02.642Z,14.00
2019-02-20T15:10:34.290Z,14.00
2019-02-20T15:13:03.149Z,14.20
2019-02-20T15:15:32.326Z,14.20
2019-02-20T15:18:07.979Z,14.10
2019-02-20T15:20:36.874Z,14.20
2019-02-20T15:23:05.632Z,14.30
2019-02-20T15:25:34.393Z,14.10
2019-02-20T15:28:04.739Z,14.00
2019-02-20T15:30:33.698Z,13.90
2019-02-20T15:33:02.853Z,13.60
2019-02-20T15:35:31.625Z,13.60
2019-02-20T15:38:00.529Z,13.60
2019-02-20T15:40:29.998Z,13.50
2019-02-20T15:43:01.633Z,13.40
2019-02-20T15:45:30.614Z,13.30
2019-02-20T15:47:59.646Z,13.30
2019-02-20T15:50:28.449Z,13.30
2019-02-20T15:52:57.282Z,13.00
2019-02-20T15:55:27.218Z,13.00
2019-02-20T15:57:56.088Z,12.90
2019-02-20T16:00:26.091Z,12.90
2019-02-20T16:02:55.318Z,12.90
2019-02-20T16:05:24.373Z,12.90
2019-02-20T16:07:53.539Z,12.90
2019-02-20T16:10:22.724Z,12.80
2019-02-20T16:12:53.106Z,12.90
2019-02-20T16:15:22.059Z,12.60
2019-02-20T16:17:50.841Z,12.50
2019-02-20T16:20:19.758Z,12.50
2019-02-20T16:22:48.598Z,12.50
2019-02-20T16:25:17.363Z,12.40
2019-02-20T16:27:47.600Z,12.40
2019-02-20T16:30:16.800Z,12.30
2019-02-20T16:32:45.830Z,12.20
2019-02-20T16:35:16.297Z,12.10
2019-02-20T16:37:45.184Z,12.00
2019-02-20T16:40:14.687Z,11.90
2019-02-20T16:42:43.466Z,11.80
2019-02-20T16:45:23.032Z,11.70
2019-02-20T16:47:52.418Z,11.60
2019-02-20T16:50:21.696Z,11.50
2019-02-20T16:52:50.837Z,11.40
2019-02-20T16:55:19.867Z,11.30
2019-02-20T16:57:56.290Z,11.20
2019-02-20T17:00:21.487Z,11.10
2019-02-20T17:02:50.779Z,11.00
2019-02-20T17:05:19.726Z,11.00
2019-02-20T17:07:48.646Z,10.80
2019-02-20T17:10:17.632Z,10.60
2019-02-20T17:12:46.420Z,10.60
2019-02-20T17:15:15.825Z,10.50
2019-02-20T17:17:44.854Z,10.20
2019-02-20T17:20:14.512Z,10.10
2019-02-20T17:22:43.333Z,10.10
2019-02-20T17:25:12.584Z,9.90
2019-02-20T17:27:41.482Z,9.80
2019-02-20T17:30:11.621Z,9.70
2019-02-20T17:32:40.640Z,9.60
2019-02-20T17:35:10.261Z,9.40
2019-02-20T17:37:39.288Z,9.30
2019-02-20T17:40:08.592Z,9.20
2019-02-20T17:42:37.418Z,9.10
2019-02-20T17:45:07.761Z,9.00
2019-02-20T17:47:36.608Z,8.90
2019-02-20T17:50:08.991Z,8.90
2019-02-20T17:52:37.945Z,8.80
2019-02-20T17:55:11.724Z,8.70
2019-02-20T17:57:40.482Z,8.60
2019-02-20T18:00:10.794Z,8.60
2019-02-20T18:02:39.632Z,8.40
2019-02-20T18:05:08.873Z,8.30
2019-02-20T18:07:37.683Z,8.30
2019-02-20T18:10:07.477Z,8.20
2019-02-20T18:12:36.402Z,8.20
2019-02-20T18:15:06.153Z,8.20
2019-02-20T18:17:34.988Z,8.10
2019-02-20T18:20:04.252Z,8.10
2019-02-20T18:22:33.002Z,7.90
2019-02-20T18:25:01.755Z,7.80
2019-02-20T18:27:30.480Z,7.80
2019-02-20T18:29:59.244Z,7.70
2019-02-20T18:32:28.172Z,7.60
2019-02-20T18:34:58.232Z,7.30
2019-02-20T18:37:30.176Z,6.90
2019-02-20T18:39:59.275Z,7.10
2019-02-20T18:42:28.562Z,7.10
2019-02-20T18:44:57.361Z,7.10
2019-02-20T18:47:26.101Z,7.10
2019-02-20T18:49:54.877Z,7.20
2019-02-20T18:52:23.602Z,7.10
2019-02-20T18:54:52.357Z,7.10
2019-02-20T18:57:21.183Z,7.00
2019-02-20T18:59:49.936Z,6.90
2019-02-20T19:02:18.680Z,6.90
2019-02-20T19:04:49.255Z,6.90
2019-02-20T19:07:18.012Z,6.90
2019-02-20T19:09:48.853Z,6.80
2019-02-20T19:12:57.238Z,6.80
2019-02-20T19:16:06.049Z,6.90
2019-02-20T19:19:29.128Z,6.80
2019-02-20T19:22:49.110Z,6.80
2019-02-20T19:26:00.582Z,6.70
2019-02-20T19:28:54.778Z,6.50
2019-02-20T19:31:51.624Z,6.40
2019-02-20T19:34:39.738Z,6.30
2019-02-20T19:37:18.449Z,6.20
2019-02-20T19:40:20.739Z,6.10
2019-02-20T19:43:36.744Z,6.10
2019-02-20T19:46:59.956Z,6.10
2019-02-20T19:50:23.017Z,5.90
2019-02-20T19:53:20.175Z,5.80
2019-02-20T19:56:30.361Z,5.80
2019-02-20T19:59:59.981Z,5.70
2019-02-20T20:03:09.861Z,5.50
2019-02-20T20:05:57.145Z,5.40
2019-02-20T20:09:09.304Z,5.30
2019-02-20T20:12:27.866Z,5.30
2019-02-20T20:15:30.742Z,5.40
2019-02-20T20:18:52.082Z,5.30
2019-02-20T20:21:46.593Z,5.20
2019-02-20T20:24:51.024Z,5.00
2019-02-20T20:27:47.429Z,5.00
2019-02-20T20:30:35.691Z,5.00
2019-02-20T20:33:42.941Z,4.90
2019-02-20T20:36:35.189Z,4.90
2019-02-20T20:40:14.795Z,4.90
2019-02-20T20:43:07.997Z,4.90
2019-02-20T20:45:51.033Z,4.80
2019-02-20T20:48:27.085Z,4.60
2019-02-20T20:51:46.096Z,4.60
2019-02-20T20:54:27.604Z,4.70
2019-02-20T20:57:25.393Z,4.60
2019-02-20T21:00:16.716Z,4.60
2019-02-20T21:02:53.997Z,4.60
2019-02-20T21:06:21.769Z,4.50
2019-02-20T21:08:59.091Z,4.50
2019-02-20T21:11:52.071Z,4.40
2019-02-20T21:15:09.620Z,4.30
2019-02-20T21:18:09.250Z,4.30
2019-02-20T21:21:00.289Z,4.20
2019-02-20T21:23:57.296Z,4.20
2019-02-20T21:26:56.488Z,4.30
2019-02-20T21:29:50.040Z,4.30
2019-02-20T21:32:35.605Z,4.40
2019-02-20T21:35:16.574Z,4.40
2019-02-20T21:38:22.225Z,4.40
2019-02-20T21:40:58.579Z,4.50
2019-02-20T21:43:48.573Z,4.50
2019-02-20T21:46:39.468Z,4.50
2019-02-20T21:49:24.753Z,4.50
2019-02-20T21:53:02.561Z,4.50
2019-02-20T21:56:06.680Z,4.40
2019-02-20T21:58:57.913Z,4.60
2019-02-20T22:01:57.844Z,4.70
2019-02-20T22:04:43.429Z,4.70
2019-02-20T22:08:15.058Z,4.70
2019-02-20T22:11:13.756Z,4.70
2019-02-20T22:14:13.181Z,4.70
2019-02-20T22:17:08.471Z,4.80
2019-02-20T22:20:06.811Z,4.80
2019-02-20T22:22:51.936Z,4.70
2019-02-20T22:25:46.829Z,4.60
2019-02-20T22:28:39.660Z,4.50
2019-02-20T22:31:42.148Z,4.40
2019-02-20T22:34:45.956Z,4.30
2019-02-20T22:37:46.817Z,4.30
2019-02-20T22:40:41.992Z,4.20
2019-02-20T22:43:31.288Z,4.10
2019-02-20T22:46:15.218Z,4.00
2019-02-20T22:49:23.328Z,4.00
2019-02-20T22:52:09.329Z,3.90
2019-02-20T22:55:17.987Z,4.00
2019-02-20T22:58:10.006Z,3.90
2019-02-20T23:01:21.036Z,3.80
2019-02-20T23:04:05.728Z,3.80
2019-02-20T23:06:56.709Z,3.70
2019-02-20T23:09:52.721Z,3.70
2019-02-20T23:13:07.168Z,3.60
2019-02-20T23:15:36.000Z,3.50
2019-02-20T23:18:04.817Z,3.40
2019-02-20T23:20:34.861Z,3.30
2019-02-20T23:23:03.594Z,3.30
2019-02-20T23:25:32.353Z,3.30
2019-02-20T23:28:01.132Z,3.30
2019-02-20T23:30:29.878Z,3.30
2019-02-20T23:33:00.661Z,3.20
2019-02-20T23:35:29.100Z,3.20
2019-02-20T23:37:57.860Z,3.20
2019-02-20T23:40:27.791Z,3.30
2019-02-20T23:42:56.874Z,3.40
2019-02-20T23:45:25.692Z,3.30
2019-02-20T23:47:54.448Z,3.30
2019-02-20T23:50:23.257Z,3.20
2019-02-20T23:52:51.999Z,3.20
2019-02-20T23:55:20.729Z,3.10
2019-02-20T23:57:49.516Z,3.10
